Time;durP1;ratioP1;P1;durP2;ratioP2;P2;SDS_P1;SDS_P2;PMS_P1;PMS_P2;Temp;Humidity;BMP_temperature;BMP_pressure;BME280_temperature;BME280_humidity;BME280_pressure;Samples;Min_cycle;Max_cycle;Signal;HPM_P1;HPM_P2
2022/08/16 00:00:44;;;;;;;3.97;3.67;;;;;;;18.66;79.95;97863.75;4186378;28;20212;-87
2022/08/16 00:02:46;;;;;;;3.60;3.30;;;;;;;18.74;79.56;97864.97;4139742;28;20241;-85
2022/08/16 00:04:48;;;;;;;4.25;3.85;;;;;;;18.69;79.67;97857.59;4150917;28;20295;-87
2022/08/16 00:06:51;;;;;;;5.13;4.05;;;;;;;18.60;80.48;97855.91;4144302;28;20193;-87
2022/08/16 00:08:55;;;;;;;4.25;3.70;;;;;;;18.55;80.65;97862.41;4160448;28;20285;-86
2022/08/16 00:10:56;;;;;;;4.20;3.65;;;;;;;18.56;80.48;97863.22;4144163;28;20289;-86
2022/08/16 00:13:00;;;;;;;3.08;2.88;;;;;;;18.49;80.99;97857.31;4146177;28;20273;-86
2022/08/16 00:15:05;;;;;;;6.10;4.10;;;;;;;18.39;81.38;97858.38;4144952;28;20315;-85
2022/08/16 00:17:12;;;;;;;4.65;4.20;;;;;;;18.51;80.92;97855.06;4175125;28;20209;-86
2022/08/16 00:19:23;;;;;;;3.55;3.35;;;;;;;18.52;80.59;97856.69;4161555;28;20216;-85
2022/08/16 00:21:29;;;;;;;4.70;4.40;;;;;;;18.56;80.54;97863.22;4190467;28;20206;-85
2022/08/16 00:23:31;;;;;;;3.80;3.60;;;;;;;18.47;80.89;97863.19;4154024;28;20204;-85
2022/08/16 00:25:46;;;;;;;3.33;3.05;;;;;;;18.61;80.36;97863.09;4152134;28;20215;-86
2022/08/16 00:28:08;;;;;;;3.72;3.42;;;;;;;18.57;80.37;97867.66;4143010;28;20266;-85
2022/08/16 00:30:13;;;;;;;4.63;4.28;;;;;;;18.46;80.88;97871.81;4166320;28;20227;-85
2022/08/16 00:32:29;;;;;;;4.00;3.78;;;;;;;18.56;80.14;97860.44;4162860;28;20654;-86
2022/08/16 00:34:35;;;;;;;5.00;4.25;;;;;;;18.51;80.18;97860.59;4136796;28;20322;-86
2022/08/16 00:36:53;;;;;;;4.18;3.88;;;;;;;18.46;80.71;97857.97;4149595;28;20200;-85
2022/08/16 00:38:56;;;;;;;3.78;3.53;;;;;;;18.55;80.13;97859.66;4151700;28;20209;-86
2022/08/16 00:40:59;;;;;;;3.65;3.35;;;;;;;18.65;79.57;97855.78;4184764;28;20203;-85
2022/08/16 00:43:04;;;;;;;3.80;3.47;;;;;;;18.68;79.24;97866.22;4152599;28;20734;-86
2022/08/16 00:45:34;;;;;;;3.60;3.40;;;;;;;18.72;78.65;97861.69;4173598;28;20206;-85
2022/08/16 00:47:40;;;;;;;3.90;3.60;;;;;;;18.75;78.22;97856.34;4135966;28;20202;-84
2022/08/16 00:49:49;;;;;;;5.03;2.83;;;;;;;18.77;77.94;97859.59;4151506;28;20232;-86
2022/08/16 00:51:57;;;;;;;3.30;3.10;;;;;;;18.78;77.89;97861.22;4152927;28;20232;-86
2022/08/16 00:53:58;;;;;;;2.58;2.38;;;;;;;18.79;77.37;97862.84;4139581;28;20296;-85
2022/08/16 00:56:05;;;;;;;3.47;3.17;;;;;;;18.76;77.45;97868.22;4140432;28;20248;-86
2022/08/16 00:58:09;;;;;;;3.83;3.25;;;;;;;18.73;77.42;97864.13;4166325;28;20211;-85
2022/08/16 01:00:32;;;;;;;3.40;3.10;;;;;;;18.68;77.75;97866.22;4151883;28;20232;-85
2022/08/16 01:02:34;;;;;;;4.18;3.28;;;;;;;18.60;77.85;97861.47;4154589;28;20228;-86
2022/08/16 01:04:36;;;;;;;3.47;2.95;;;;;;;18.54;78.02;97865.50;4138019;28;20312;-85
2022/08/16 01:06:38;;;;;;;2.83;2.63;;;;;;;18.44;78.08;97865.78;4157074;28;20676;-86
2022/08/16 01:09:02;;;;;;;3.72;3.42;;;;;;;18.43;78.28;97866.88;4143413;28;20224;-86
2022/08/16 01:11:05;;;;;;;8.27;3.22;;;;;;;18.37;78.32;97865.38;4153390;28;20209;-86
2022/08/16 01:13:14;;;;;;;3.83;3.53;;;;;;;18.32;78.57;97863.56;4168964;28;20229;-86
2022/08/16 01:15:17;;;;;;;3.70;3.40;;;;;;;18.30;78.75;97868.59;4166868;28;20207;-86
2022/08/16 01:17:20;;;;;;;3.88;3.50;;;;;;;18.32;78.74;97868.28;4151740;28;20194;-86
2022/08/16 01:19:37;;;;;;;4.47;4.10;;;;;;;18.29;78.84;97860.56;4164188;28;20216;-86
2022/08/16 01:21:58;;;;;;;3.75;3.53;;;;;;;18.25;79.08;97856.81;4138396;28;20629;-86
2022/08/16 01:24:30;;;;;;;4.13;3.53;;;;;;;18.25;79.36;97868.69;4173462;28;20245;-86
2022/08/16 01:26:57;;;;;;;4.05;3.75;;;;;;;18.24;78.87;97866.25;4181366;28;20207;-86
2022/08/16 01:29:08;;;;;;;4.07;3.78;;;;;;;18.25;78.84;97867.88;4153801;28;20225;-87
2022/08/16 01:31:12;;;;;;;4.20;3.88;;;;;;;18.29;78.70;97877.19;4179506;28;20200;-85
2022/08/16 01:33:13;;;;;;;4.32;3.97;;;;;;;18.28;78.98;97876.38;4176355;28;20306;-84
2022/08/16 01:35:23;;;;;;;4.13;3.83;;;;;;;18.28;78.99;97884.69;4155330;28;20253;-85
2022/08/16 01:37:26;;;;;;;3.42;3.22;;;;;;;18.26;79.05;97870.31;4153118;28;20204;-86
2022/08/16 01:39:36;;;;;;;4.68;4.03;;;;;;;18.21;78.98;97878.78;4139103;28;20647;-85
2022/08/16 01:41:39;;;;;;;3.78;3.55;;;;;;;18.20;79.05;97871.59;4141066;28;20217;-85
2022/08/16 01:43:45;;;;;;;3.00;2.80;;;;;;;18.15;79.25;97874.50;4144469;28;20209;-86
2022/08/16 01:45:56;;;;;;;3.67;3.38;;;;;;;18.15;78.93;97874.50;4150167;28;20274;-86
2022/08/16 01:47:58;;;;;;;3.67;3.47;;;;;;;18.16;78.68;97873.34;4153581;28;20308;-86
2022/08/16 01:50:03;;;;;;;9.00;3.67;;;;;;;18.18;78.60;97878.59;4178010;28;20238;-86
2022/08/16 01:52:25;;;;;;;3.47;3.25;;;;;;;18.18;78.59;97875.81;4165981;28;20216;-86
2022/08/16 01:54:30;;;;;;;4.22;3.92;;;;;;;18.18;78.76;97875.81;4169449;28;20212;-86
2022/08/16 01:56:38;;;;;;;4.35;3.83;;;;;;;18.17;78.27;97879.69;4171763;28;20210;-85
2022/08/16 01:58:40;;;;;;;3.50;3.30;;;;;;;18.15;78.09;97879.19;4155841;28;20200;-86
2022/08/16 02:00:49;;;;;;;3.60;3.40;;;;;;;18.12;78.19;97879.84;4147123;28;20209;-86
2022/08/16 02:02:51;;;;;;;3.88;3.58;;;;;;;18.03;78.31;97876.16;4169997;28;20255;-85
2022/08/16 02:04:55;;;;;;;3.95;3.58;;;;;;;18.00;78.59;97887.88;4168583;28;20214;-85
2022/08/16 02:06:58;;;;;;;3.17;2.97;;;;;;;17.94;78.80;97872.53;4139320;28;20272;-86
2022/08/16 02:08:59;;;;;;;4.20;3.97;;;;;;;17.89;79.04;97878.16;4141880;28;20205;-85
2022/08/16 02:11:05;;;;;;;3.40;3.20;;;;;;;17.76;79.39;97881.78;4158043;28;20328;-86
2022/08/16 02:13:07;;;;;;;3.95;3.65;;;;;;;17.75;79.25;97889.28;4138672;28;20216;-85
2022/08/16 02:15:10;;;;;;;3.60;3.40;;;;;;;17.70;79.43;97885.81;4151863;28;20307;-86
2022/08/16 02:17:12;;;;;;;3.65;3.42;;;;;;;17.81;79.27;97887.22;4166082;28;20227;-85
2022/08/16 02:19:16;;;;;;;4.70;4.30;;;;;;;17.61;80.59;97884.91;4170462;28;20752;-85
2022/08/16 02:21:18;;;;;;;4.68;3.72;;;;;;;17.58;81.02;97885.53;4179320;28;20224;-84
2022/08/16 02:23:33;;;;;;;4.47;4.07;;;;;;;17.65;80.76;97885.94;4133999;28;20231;-86
2022/08/16 02:25:35;;;;;;;5.60;5.15;;;;;;;17.58;81.25;97874.47;4154604;28;20232;-87
2022/08/16 02:27:54;;;;;;;4.45;4.15;;;;;;;17.56;81.68;97873.94;4153284;28;20678;-87
2022/08/16 02:29:56;;;;;;;4.78;4.43;;;;;;;17.56;81.62;97873.94;4183251;28;20235;-86
2022/08/16 02:32:07;;;;;;;4.63;4.15;;;;;;;17.58;81.09;97866.19;4151037;28;20227;-85
2022/08/16 02:34:29;;;;;;;3.97;3.75;;;;;;;17.61;80.56;97862.78;4166437;28;20217;-86
2022/08/16 02:36:35;;;;;;;3.97;3.67;;;;;;;17.64;80.36;97864.94;4141065;28;20222;-86
2022/08/16 02:38:49;;;;;;;4.20;3.90;;;;;;;17.70;79.94;97869.19;4153980;28;20727;-86
2022/08/16 02:40:51;;;;;;;4.57;4.20;;;;;;;17.66;79.81;97859.91;4150053;28;20205;-85
2022/08/16 02:42:55;;;;;;;3.95;3.75;;;;;;;17.64;79.84;97845.56;4154667;28;20204;-84
2022/08/16 02:44:56;;;;;;;3.63;2.92;;;;;;;17.63;79.65;97860.50;4160735;28;20236;-84
2022/08/16 02:46:58;;;;;;;3.97;3.47;;;;;;;17.57;80.21;97856.22;4150299;28;20236;-86
2022/08/16 02:49:04;;;;;;;3.53;3.33;;;;;;;17.56;80.09;97854.56;4154056;28;20236;-86
2022/08/16 02:51:08;;;;;;;5.25;3.97;;;;;;;17.51;80.09;97851.94;4174016;28;20712;-86
2022/08/16 02:53:11;;;;;;;4.25;3.90;;;;;;;17.49;79.89;97854.19;4157563;28;20204;-85
2022/08/16 02:55:18;;;;;;;4.40;4.13;;;;;;;17.47;80.05;97853.69;4172318;28;20311;-86
2022/08/16 02:57:42;;;;;;;5.15;4.85;;;;;;;17.45;80.21;97858.72;4177815;28;20208;-85
2022/08/16 02:59:55;;;;;;;5.15;4.60;;;;;;;17.37;81.04;97859.44;4153866;28;20259;-87
2022/08/16 03:01:56;;;;;;;4.35;4.00;;;;;;;17.37;81.02;97848.38;4149565;28;20213;-86
2022/08/16 03:03:59;;;;;;;4.72;4.30;;;;;;;17.27;81.69;97852.16;4135222;28;20590;-86
2022/08/16 03:06:22;;;;;;;5.03;4.60;;;;;;;17.24;82.15;97858.28;4153927;28;20213;-85
2022/08/16 03:08:43;;;;;;;4.50;4.10;;;;;;;17.15;82.58;97865.69;4176822;28;20925;-85
2022/08/16 03:10:53;;;;;;;4.82;4.53;;;;;;;17.17;82.63;97862.59;4162181;28;20205;-86
2022/08/16 03:12:59;;;;;;;4.38;4.03;;;;;;;17.19;82.32;97857.59;4183078;28;20212;-86
2022/08/16 03:15:02;;;;;;;5.03;4.72;;;;;;;17.20;81.87;97850.94;4159382;28;20295;-86
2022/08/16 03:17:04;;;;;;;4.68;4.38;;;;;;;17.26;81.08;97855.22;4150145;28;20219;-84
2022/08/16 03:19:08;;;;;;;5.35;4.95;;;;;;;17.29;81.22;97849.06;4183377;28;20231;-85
2022/08/16 03:21:11;;;;;;;4.57;4.18;;;;;;;17.26;81.42;97855.22;4167593;28;20302;-85
2022/08/16 03:23:13;;;;;;;4.78;4.47;;;;;;;17.24;81.34;97849.16;4142942;28;20217;-85
2022/08/16 03:25:16;;;;;;;4.57;4.18;;;;;;;17.24;81.40;97852.75;4157876;28;20223;-84
2022/08/16 03:27:19;;;;;;;4.72;4.43;;;;;;;17.24;81.24;97847.22;4141830;28;20300;-85
2022/08/16 03:29:26;;;;;;;5.15;4.80;;;;;;;17.24;81.40;97857.47;4136345;28;20226;-86
2022/08/16 03:31:30;;;;;;;5.60;4.85;;;;;;;17.23;81.48;97855.81;4150237;28;20200;-84
2022/08/16 03:33:41;;;;;;;5.13;4.82;;;;;;;17.25;81.04;97848.06;4141649;28;20193;-85
2022/08/16 03:35:43;;;;;;;5.05;4.75;;;;;;;17.24;80.94;97852.75;4166417;28;20228;-85
2022/08/16 03:37:46;;;;;;;15.90;4.45;;;;;;;17.19;80.74;97850.09;4151692;28;20304;-87
2022/08/16 03:40:04;;;;;;;5.57;5.18;;;;;;;17.17;80.35;97857.88;4139516;28;20240;-86
2022/08/16 03:42:07;;;;;;;4.78;4.47;;;;;;;17.18;80.25;97858.72;4166168;28;20233;-84
2022/08/16 03:44:10;;;;;;;4.72;4.43;;;;;;;17.20;79.99;97853.69;4150511;28;20730;-86
2022/08/16 03:46:33;;;;;;;3.80;3.60;;;;;;;17.20;79.76;97856.47;4161631;28;20204;-86
2022/08/16 03:48:50;;;;;;;3.97;3.78;;;;;;;17.17;79.72;97857.88;4150582;28;20283;-85
2022/08/16 03:50:51;;;;;;;4.43;4.13;;;;;;;17.20;79.81;97868.31;4154873;28;20292;-85
2022/08/16 03:53:01;;;;;;;4.28;3.97;;;;;;;17.18;79.73;97858.72;4155376;28;20705;-85
2022/08/16 03:55:08;;;;;;;4.47;4.18;;;;;;;17.16;79.88;97860.97;4164542;28;20247;-86
2022/08/16 03:57:15;;;;;;;4.38;4.13;;;;;;;17.16;80.11;97864.56;4142640;28;20259;-86
2022/08/16 03:59:17;;;;;;;4.18;3.88;;;;;;;17.11;80.41;97863.84;4151451;28;21118;-86
2022/08/16 04:01:20;;;;;;;4.93;4.60;;;;;;;17.06;80.61;97861.19;4150493;28;20295;-86
2022/08/16 04:03:23;;;;;;;4.95;4.55;;;;;;;17.01;80.81;97864.03;4165295;28;20235;-86
2022/08/16 04:05:26;;;;;;;5.50;5.20;;;;;;;16.93;81.34;97859.22;4152279;28;20216;-85
2022/08/16 04:07:31;;;;;;;5.88;5.47;;;;;;;16.94;81.10;97863.63;4167340;28;20216;-86
2022/08/16 04:09:34;;;;;;;4.60;4.30;;;;;;;16.87;81.63;97857.69;4165141;28;20297;-86
2022/08/16 04:11:38;;;;;;;5.20;4.80;;;;;;;16.83;82.11;97856.66;4150367;28;20379;-85
2022/08/16 04:13:40;;;;;;;5.32;5.03;;;;;;;16.77;82.18;97863.41;4152477;28;20281;-86
2022/08/16 04:16:02;;;;;;;5.03;4.63;;;;;;;16.73;82.01;97856.88;4148830;28;20721;-86
2022/08/16 04:18:08;;;;;;;5.90;5.50;;;;;;;16.73;81.89;97862.38;4181441;28;20210;-86
2022/08/16 04:20:12;;;;;;;4.35;4.05;;;;;;;16.76;81.91;97852.69;4135514;28;20256;-86
2022/08/16 04:22:34;;;;;;;5.18;4.78;;;;;;;16.74;81.73;97858.50;4154450;28;20215;-86
2022/08/16 04:24:40;;;;;;;6.00;5.50;;;;;;;16.76;81.82;97855.44;4140364;28;20215;-86
2022/08/16 04:26:54;;;;;;;5.63;5.05;;;;;;;16.70;81.94;97868.50;4148255;28;20220;-86
2022/08/16 04:28:59;;;;;;;5.25;4.88;;;;;;;16.75;81.74;97876.72;4150634;28;20291;-86
2022/08/16 04:31:21;;;;;;;5.22;4.80;;;;;;;16.70;81.97;97876.78;4177174;28;20255;-87
2022/08/16 04:33:24;;;;;;;5.10;4.78;;;;;;;16.76;81.51;97875.59;4139138;28;20224;-86
2022/08/16 04:35:28;;;;;;;6.00;5.50;;;;;;;16.73;81.94;97873.44;4139344;28;20217;-85
2022/08/16 04:37:35;;;;;;;5.03;4.30;;;;;;;16.73;81.61;97873.44;4136663;28;20697;-86
2022/08/16 04:39:42;;;;;;;5.32;4.90;;;;;;;16.73;81.65;97873.44;4136160;28;20225;-85
2022/08/16 04:41:55;;;;;;;7.18;5.95;;;;;;;16.57;83.48;97872.06;4141155;28;20259;-86
2022/08/16 04:43:59;;;;;;;6.15;5.63;;;;;;;16.58;83.27;97882.03;4170502;28;20208;-86
2022/08/16 04:46:01;;;;;;;8.18;5.22;;;;;;;16.56;83.43;97878.72;4138643;28;20230;-85
2022/08/16 04:48:04;;;;;;;10.82;6.75;;;;;;;16.66;82.90;97873.03;4160797;28;20296;-85
2022/08/16 04:50:09;;;;;;;19.95;6.57;;;;;;;16.77;82.61;97868.94;4170388;28;20226;-86
2022/08/16 04:52:11;;;;;;;22.17;5.95;;;;;;;16.73;82.71;97880.91;4140434;28;20229;-87
2022/08/16 04:54:32;;;;;;;11.23;5.22;;;;;;;16.70;82.46;97879.56;4139172;28;20205;-86
2022/08/16 04:56:35;;;;;;;13.77;6.22;;;;;;;16.69;82.52;97877.13;4171939;28;20224;-86
2022/08/16 04:58:46;;;;;;;7.85;5.47;;;;;;;16.68;82.08;97881.00;4145070;28;20636;-85
2022/08/16 05:00:48;;;;;;;6.82;5.10;;;;;;;16.74;82.06;97882.53;4164000;28;20208;-85
2022/08/16 05:02:52;;;;;;;9.25;5.45;;;;;;;16.75;81.88;97879.47;4162862;28;20209;-85
2022/08/16 05:04:59;;;;;;;9.25;5.35;;;;;;;16.78;81.84;97881.66;4168082;28;20596;-85
2022/08/16 05:07:00;;;;;;;11.75;6.70;;;;;;;16.78;82.02;97887.16;4159648;28;20275;-86
2022/08/16 05:09:05;;;;;;;7.20;5.57;;;;;;;16.80;82.05;97890.44;4157025;28;20264;-85
2022/08/16 05:11:08;;;;;;;9.23;5.43;;;;;;;16.81;81.74;97892.06;4173263;28;20244;-85
2022/08/16 05:13:11;;;;;;;5.25;4.75;;;;;;;16.84;81.62;97896.97;4160441;28;20651;-86
2022/08/16 05:15:16;;;;;;;4.70;4.30;;;;;;;16.86;81.56;97900.28;4172029;28;20206;-85
2022/08/16 05:17:19;;;;;;;8.75;5.05;;;;;;;16.89;81.57;97898.84;4157163;28;20296;-86
2022/08/16 05:19:25;;;;;;;6.63;5.35;;;;;;;16.93;81.25;97900.69;4149610;28;20237;-85
2022/08/16 05:21:37;;;;;;;5.32;4.82;;;;;;;16.98;81.32;97903.38;4153436;28;20206;-86
2022/08/16 05:23:40;;;;;;;5.53;5.07;;;;;;;17.05;81.28;97910.09;4138515;28;20206;-85
2022/08/16 05:25:44;;;;;;;6.10;5.60;;;;;;;17.12;81.22;97915.25;4169059;28;20748;-85
2022/08/16 05:27:50;;;;;;;5.63;5.07;;;;;;;17.17;81.30;97915.97;4183373;28;20859;-85
2022/08/16 05:29:55;;;;;;;6.00;5.32;;;;;;;17.24;81.15;97910.84;4164695;28;20279;-85
2022/08/16 05:32:02;;;;;;;5.35;4.97;;;;;;;17.33;81.10;97910.94;4167732;28;20216;-86
2022/08/16 05:34:23;;;;;;;5.93;5.43;;;;;;;17.44;80.91;97912.41;4169125;28;20223;-85
2022/08/16 05:36:26;;;;;;;5.05;4.75;;;;;;;17.48;80.67;97925.31;4157044;28;20275;-86
2022/08/16 05:38:37;;;;;;;5.38;5.05;;;;;;;17.56;80.80;97918.22;4139995;28;20212;-86
2022/08/16 05:40:40;;;;;;;8.15;4.40;;;;;;;17.63;80.40;97921.38;4156188;28;20236;-85
2022/08/16 05:42:58;;;;;;;5.85;5.20;;;;;;;17.65;80.13;97924.69;4141786;28;20213;-86
2022/08/16 05:45:05;;;;;;;7.40;6.78;;;;;;;17.68;80.96;97924.06;4185653;28;20215;-86
2022/08/16 05:47:07;;;;;;;7.55;6.72;;;;;;;17.73;80.99;97923.94;4153876;28;20613;-85
2022/08/16 05:49:15;;;;;;;7.78;7.18;;;;;;;17.82;81.66;97924.84;4170446;28;20606;-86
2022/08/16 05:51:23;;;;;;;8.48;7.63;;;;;;;17.99;81.77;97927.78;4169370;28;20208;-86
2022/08/16 05:53:39;;;;;;;9.00;6.75;;;;;;;18.18;81.43;97923.72;4154271;28;20205;-84
2022/08/16 05:55:42;;;;;;;8.18;7.53;;;;;;;18.36;81.48;97931.06;4164431;28;20229;-85
2022/08/16 05:57:49;;;;;;;7.70;7.20;;;;;;;18.51;80.50;97927.09;4149606;28;20244;-84
2022/08/16 05:59:56;;;;;;;7.30;6.63;;;;;;;18.70;79.65;97936.00;4196683;28;20228;-84
2022/08/16 06:02:05;;;;;;;5.78;5.22;;;;;;;18.88;78.92;97933.06;4180217;28;20327;-85
2022/08/16 06:04:19;;;;;;;10.68;4.95;;;;;;;18.98;78.02;97937.50;4180896;28;20299;-85
2022/08/16 06:06:37;;;;;;;6.75;6.10;;;;;;;18.97;77.83;97936.69;4170179;28;20319;-85
2022/08/16 06:08:57;;;;;;;7.07;6.57;;;;;;;19.20;77.81;97945.81;4153323;28;20197;-85
2022/08/16 06:10:59;;;;;;;7.18;6.68;;;;;;;19.41;77.12;97944.09;4152585;28;20658;-85
2022/08/16 06:13:41;;;;;;;5.88;5.43;;;;;;;19.61;75.68;97951.84;4164209;28;20224;-85
2022/08/16 06:16:07;;;;;;;6.00;5.40;;;;;;;19.76;75.40;97954.16;4158869;28;20267;-86
2022/08/16 06:18:33;;;;;;;5.30;4.95;;;;;;;19.76;74.13;97940.28;4112482;28;20206;-85
2022/08/16 06:20:58;;;;;;;8.65;4.68;;;;;;;19.79;74.99;97942.44;4125933;28;20250;-85
2022/08/16 06:23:20;;;;;;;5.38;4.97;;;;;;;19.79;74.49;97936.88;4084130;28;20208;-85
2022/08/16 06:25:43;;;;;;;5.15;4.78;;;;;;;20.03;74.53;97937.22;4062611;29;20216;-85
2022/08/16 06:28:10;;;;;;;6.60;5.97;;;;;;;20.14;74.03;97933.03;4091367;28;20204;-85
2022/08/16 06:30:32;;;;;;;5.28;4.93;;;;;;;20.33;73.37;97930.75;4104678;23;20234;-54
2022/08/16 06:32:33;;;;;;;6.53;6.03;;;;;;;20.55;73.02;97933.34;4106670;28;20207;-54
2022/08/16 06:34:43;;;;;;;5.95;5.45;;;;;;;20.68;72.46;97932.34;4111405;28;20387;-53
2022/08/16 06:36:58;;;;;;;7.05;6.63;;;;;;;20.71;73.11;97931.72;4104272;28;20229;-53
2022/08/16 06:39:02;;;;;;;5.57;5.22;;;;;;;20.79;72.39;97928.91;4105897;28;20226;-54
2022/08/16 06:41:07;;;;;;;6.65;6.10;;;;;;;20.90;72.70;97930.22;4109263;28;20649;-53
2022/08/16 06:43:14;;;;;;;5.88;5.28;;;;;;;20.87;72.84;97930.03;4111787;28;20265;-53
2022/08/16 06:45:17;;;;;;;5.97;5.57;;;;;;;21.09;72.10;97932.63;4106028;28;20276;-52
2022/08/16 06:47:19;;;;;;;6.88;6.28;;;;;;;21.23;72.35;97939.63;4111534;28;20638;-53
2022/08/16 06:49:23;;;;;;;7.35;6.75;;;;;;;21.08;72.09;97939.34;4103982;28;20206;-54
2022/08/16 06:51:24;;;;;;;6.82;6.32;;;;;;;21.17;73.04;97935.38;4109515;28;20221;-53
2022/08/16 06:53:46;;;;;;;6.80;6.30;;;;;;;21.31;71.68;97940.75;4104142;28;20218;-54
2022/08/16 06:55:57;;;;;;;8.02;7.40;;;;;;;21.38;71.92;97941.84;4110295;28;20321;-53
2022/08/16 06:58:00;;;;;;;6.15;5.68;;;;;;;21.50;71.58;97946.75;4108666;28;20257;-54
2022/08/16 07:00:11;;;;;;;7.85;7.30;;;;;;;21.62;71.11;97947.66;4106273;28;20277;-54
2022/08/16 07:02:25;;;;;;;6.82;6.32;;;;;;;21.58;71.45;97948.66;4119948;28;20218;-54
2022/08/16 07:04:34;;;;;;;6.75;6.15;;;;;;;21.31;72.16;97946.31;4108726;28;20238;-54
2022/08/16 07:06:39;;;;;;;7.47;6.88;;;;;;;20.94;74.43;97947.91;4104574;28;20511;-53
2022/08/16 07:08:45;;;;;;;7.47;6.88;;;;;;;20.70;74.83;97947.56;4091905;28;20213;-53
2022/08/16 07:10:49;;;;;;;6.43;5.93;;;;;;;20.62;75.92;97947.56;4104540;28;20210;-53
2022/08/16 07:12:52;;;;;;;8.15;6.63;;;;;;;20.72;75.29;97948.06;4102939;28;20219;-54
2022/08/16 07:15:12;;;;;;;7.85;7.35;;;;;;;20.60;76.80;97947.09;4115492;28;20216;-52
2022/08/16 07:17:21;;;;;;;6.90;6.35;;;;;;;20.79;76.06;97950.34;4104199;28;20333;-52
2022/08/16 07:19:23;;;;;;;8.02;7.53;;;;;;;20.87;75.75;97943.94;4107824;28;20776;-53
2022/08/16 07:21:45;;;;;;;6.78;6.32;;;;;;;21.28;75.03;97958.09;4117614;28;20556;-53
2022/08/16 07:24:01;;;;;;;6.93;6.35;;;;;;;21.56;73.51;97948.16;4105118;28;20210;-52
2022/08/16 07:26:10;;;;;;;9.85;6.25;;;;;;;21.80;72.74;97957.59;4104284;28;20241;-54
2022/08/16 07:28:25;;;;;;;6.32;5.75;;;;;;;22.22;71.42;97956.50;4103719;28;20203;-53
2022/08/16 07:30:28;;;;;;;8.00;7.20;;;;;;;22.49;70.56;97957.97;4124320;28;20272;-54
2022/08/16 07:32:49;;;;;;;6.60;6.20;;;;;;;22.60;70.33;97939.66;4103044;28;20213;-53
2022/08/16 07:34:52;;;;;;;7.50;7.00;;;;;;;22.50;70.20;97945.66;4108436;28;20198;-52
2022/08/16 07:36:54;;;;;;;9.00;8.10;;;;;;;22.74;70.07;97934.59;4086610;28;20282;-52
2022/08/16 07:38:58;;;;;;;8.63;8.02;;;;;;;22.75;69.34;97933.44;4118226;28;20332;-52
2022/08/16 07:41:00;;;;;;;8.75;8.05;;;;;;;22.53;69.79;97939.41;4104462;28;20293;-52
2022/08/16 07:43:11;;;;;;;8.98;8.27;;;;;;;22.26;70.48;97937.13;4099900;28;20337;-54
2022/08/16 07:45:13;;;;;;;8.80;8.20;;;;;;;21.92;71.66;97935.38;4102523;28;20234;-53
2022/08/16 07:47:18;;;;;;;9.00;8.30;;;;;;;22.05;71.58;97939.09;4102519;28;20226;-53
2022/08/16 07:49:25;;;;;;;7.63;6.85;;;;;;;22.80;70.00;97938.81;4101910;28;20214;-52
2022/08/16 07:51:35;;;;;;;7.55;7.05;;;;;;;23.20;68.37;97942.69;4108814;28;20706;-54
2022/08/16 07:53:37;;;;;;;8.23;7.60;;;;;;;23.54;67.36;97942.28;4105513;28;20260;-53
2022/08/16 07:55:44;;;;;;;6.18;5.68;;;;;;;24.07;65.75;97946.50;4089540;28;20203;-53
2022/08/16 07:57:48;;;;;;;5.90;5.40;;;;;;;24.27;65.08;97939.94;4101843;28;20258;-54
2022/08/16 08:00:04;;;;;;;8.35;5.93;;;;;;;24.46;64.64;97950.53;4105061;28;20206;-54
2022/08/16 08:02:19;;;;;;;6.65;6.07;;;;;;;24.62;63.48;97952.25;4106565;28;20210;-52
2022/08/16 08:04:21;;;;;;;6.13;5.63;;;;;;;23.96;64.86;97954.91;4121002;28;20839;-53
2022/08/16 08:06:27;;;;;;;6.15;5.60;;;;;;;23.92;64.92;97950.00;4107214;28;20222;-53
2022/08/16 08:08:29;;;;;;;5.60;5.20;;;;;;;23.79;65.13;97956.72;4120471;28;20210;-52
2022/08/16 08:10:51;;;;;;;6.53;6.07;;;;;;;23.87;64.67;97954.19;4103555;28;20261;-53
2022/08/16 08:12:53;;;;;;;5.63;5.22;;;;;;;23.73;66.28;97958.13;4115296;28;20252;-52
2022/08/16 08:15:00;;;;;;;6.35;5.75;;;;;;;24.15;65.08;97965.16;4105588;28;20728;-52
2022/08/16 08:17:06;;;;;;;6.03;5.53;;;;;;;24.24;64.44;97968.63;4106308;28;20225;-54
2022/08/16 08:19:11;;;;;;;8.45;4.85;;;;;;;24.12;64.70;97965.84;4091476;28;20210;-53
2022/08/16 08:21:13;;;;;;;6.20;5.68;;;;;;;24.34;63.98;97967.31;4112217;28;20634;-53
2022/08/16 08:23:16;;;;;;;6.53;5.93;;;;;;;24.52;63.70;97975.09;4101303;28;20249;-52
2022/08/16 08:25:19;;;;;;;7.72;4.22;;;;;;;24.63;62.47;97964.25;4109234;28;20214;-53
2022/08/16 08:27:21;;;;;;;6.00;5.25;;;;;;;23.86;64.15;97967.34;4117636;28;20221;-54
2022/08/16 08:29:26;;;;;;;6.15;5.72;;;;;;;23.89;64.63;97965.88;4089542;28;20285;-54
2022/08/16 08:31:41;;;;;;;6.80;6.22;;;;;;;23.43;65.40;97964.25;4101529;28;20676;-54
2022/08/16 08:33:43;;;;;;;5.90;5.40;;;;;;;23.46;65.51;97962.75;4102590;28;20247;-54
2022/08/16 08:35:54;;;;;;;6.78;5.95;;;;;;;23.87;64.67;97957.81;4106183;28;20214;-53
2022/08/16 08:37:57;;;;;;;8.48;5.32;;;;;;;24.37;63.52;97964.63;4089543;28;20317;-54
2022/08/16 08:40:01;;;;;;;5.80;4.75;;;;;;;24.63;63.01;97964.25;4109866;28;20210;-53
2022/08/16 08:42:04;;;;;;;6.65;4.90;;;;;;;24.81;62.10;97960.78;4110475;28;20699;-53
2022/08/16 08:44:06;;;;;;;5.30;4.88;;;;;;;25.25;61.68;97965.28;4107800;28;20246;-52
2022/08/16 08:46:28;;;;;;;4.70;4.30;;;;;;;26.18;59.40;97965.34;4106906;28;20232;-52
2022/08/16 08:48:36;;;;;;;5.43;4.25;;;;;;;26.79;58.55;97969.16;4107773;28;20205;-52
2022/08/16 08:50:44;;;;;;;5.10;4.65;;;;;;;27.03;56.24;97974.50;4110311;28;20213;-53
2022/08/16 08:52:52;;;;;;;4.75;4.35;;;;;;;27.14;56.78;97969.09;4105822;28;20297;-53
2022/08/16 08:54:54;;;;;;;4.93;3.83;;;;;;;27.19;55.71;97961.19;4106806;28;20289;-52
2022/08/16 08:56:56;;;;;;;4.03;3.60;;;;;;;27.39;55.42;97957.16;4106598;28;20317;-53
2022/08/16 08:58:58;;;;;;;4.30;3.38;;;;;;;27.03;54.12;97962.44;4107530;28;20221;-51
2022/08/16 09:01:16;;;;;;;3.60;3.15;;;;;;;26.85;53.43;97964.09;4106955;28;20644;-52
2022/08/16 09:03:37;;;;;;;4.30;3.33;;;;;;;25.58;56.64;97968.59;4093556;28;20625;-52
2022/08/16 09:05:41;;;;;;;3.30;3.08;;;;;;;26.11;56.96;97970.78;4103137;28;20234;-52
2022/08/16 09:07:51;;;;;;;3.95;3.53;;;;;;;26.43;55.90;97966.72;4106003;28;20225;-52
2022/08/16 09:10:06;;;;;;;3.30;2.67;;;;;;;27.14;55.15;97964.28;4108601;28;20924;-51
2022/08/16 09:12:22;;;;;;;3.75;2.85;;;;;;;26.26;56.11;97978.34;4094142;28;20204;-52
2022/08/16 09:14:38;;;;;;;3.83;3.20;;;;;;;26.96;55.44;97974.34;4107028;28;20214;-53
2022/08/16 09:16:51;;;;;;;3.70;3.47;;;;;;;27.23;53.57;97967.72;4105394;28;20240;-53
2022/08/16 09:19:05;;;;;;;5.05;2.92;;;;;;;27.50;52.70;97982.66;4115555;28;20620;-54
2022/08/16 09:21:06;;;;;;;3.10;2.90;;;;;;;27.04;51.51;97976.13;4108889;28;20206;-51
2022/08/16 09:23:11;;;;;;;2.80;2.60;;;;;;;26.10;54.19;97985.16;4107577;28;20214;-51
2022/08/16 09:25:19;;;;;;;2.53;2.40;;;;;;;26.00;54.42;97985.72;4106514;28;20268;-53
2022/08/16 09:27:35;;;;;;;4.50;2.47;;;;;;;25.80;55.76;97987.59;4096779;28;20195;-51
2022/08/16 09:29:56;;;;;;;2.78;2.45;;;;;;;25.64;55.99;97983.97;4106863;28;20648;-52
2022/08/16 09:32:03;;;;;;;2.78;2.55;;;;;;;25.62;56.33;97983.53;4115171;28;20534;-51
2022/08/16 09:34:08;;;;;;;3.05;2.78;;;;;;;25.40;55.80;97977.72;4107742;28;20303;-52
2022/08/16 09:36:12;;;;;;;3.35;3.08;;;;;;;25.00;56.90;97980.56;4107404;28;20250;-51
2022/08/16 09:38:34;;;;;;;3.92;3.63;;;;;;;25.62;55.41;97980.72;4114924;28;20218;-52
2022/08/16 09:40:36;;;;;;;2.05;1.88;;;;;;;25.87;54.62;97982.16;4123860;28;20209;-52
2022/08/16 09:42:44;;;;;;;2.40;2.17;;;;;;;26.67;52.71;97979.72;4109640;28;20620;-51
2022/08/16 09:44:59;;;;;;;2.58;2.38;;;;;;;27.45;51.01;97975.34;4101152;28;20203;-51
2022/08/16 09:47:17;;;;;;;2.22;2.10;;;;;;;27.88;49.88;97982.59;4109154;28;20233;-52
2022/08/16 09:49:25;;;;;;;2.72;2.53;;;;;;;27.61;49.65;97978.88;4110384;28;20260;-51
2022/08/16 09:51:38;;;;;;;2.22;2.00;;;;;;;27.26;51.54;97975.38;4123293;28;20217;-52
2022/08/16 09:53:40;;;;;;;2.80;2.28;;;;;;;26.88;52.18;97980.19;4099801;28;20704;-52
2022/08/16 09:55:46;;;;;;;5.55;2.60;;;;;;;26.66;52.96;97976.09;4110998;28;20210;-52
2022/08/16 09:57:50;;;;;;;3.45;3.13;;;;;;;26.39;54.15;97973.44;4106692;28;20215;-52
2022/08/16 09:59:53;;;;;;;2.78;2.58;;;;;;;26.14;54.41;97981.25;4108011;28;20297;-52
2022/08/16 10:01:59;;;;;;;3.70;3.15;;;;;;;26.00;55.34;97980.91;4123035;28;20207;-52
2022/08/16 10:04:21;;;;;;;10.68;2.78;;;;;;;25.82;55.93;97976.00;4111557;28;20233;-52